Time;durP1;ratioP1;P1;durP2;ratioP2;P2;SDS_P1;SDS_P2;PMS_P1;PMS_P2;Temp;Humidity;BMP_temperature;BMP_pressure;BME280_temperature;BME280_humidity;BME280_pressure;Samples;Min_cycle;Max_cycle;Signal;HPM_P1;HPM_P2
2022/11/28 08:47:12;;;;;;;9.40;7.63;;;;;;;5.25;100.00;99539.75;6263901;22;20692;-80
2022/11/28 08:49:39;;;;;;;10.10;7.80;;;;;;;5.26;100.00;99534.25;6275083;22;20261;-80
2022/11/28 08:52:05;;;;;;;10.50;7.67;;;;;;;5.28;100.00;99532.22;6222731;22;20240;-79
2022/11/28 08:54:32;;;;;;;11.47;8.07;;;;;;;5.37;100.00;99540.88;6252008;22;20211;-80
2022/11/28 08:57:00;;;;;;;8.90;7.30;;;;;;;5.42;100.00;99535.00;6226009;22;20250;-80
2022/11/28 08:59:27;;;;;;;9.57;7.90;;;;;;;5.52;100.00;99536.34;6251104;22;20219;-80
2022/11/28 09:01:53;;;;;;;9.03;7.57;;;;;;;5.61;100.00;99529.06;6224665;22;20200;-80
2022/11/28 09:04:21;;;;;;;9.80;7.97;;;;;;;5.64;100.00;99534.84;6275369;22;20228;-80
2022/11/28 09:06:47;;;;;;;9.97;7.77;;;;;;;5.64;100.00;99523.38;6250111;22;20240;-81
2022/11/28 09:09:14;;;;;;;9.83;7.77;;;;;;;5.69;100.00;99531.63;6249426;22;20607;-80
2022/11/28 09:11:41;;;;;;;11.07;8.63;;;;;;;5.75;100.00;99530.84;6224563;22;20214;-80
2022/11/28 09:14:07;;;;;;;11.07;8.43;;;;;;;5.89;100.00;99527.31;6249600;22;20235;-80
2022/11/28 09:16:34;;;;;;;11.30;8.33;;;;;;;5.89;100.00;99518.50;6218883;22;20215;-79
2022/11/28 09:19:01;;;;;;;10.83;8.53;;;;;;;6.08;100.00;99518.66;6269843;22;20212;-80
2022/11/28 09:21:27;;;;;;;9.53;7.77;;;;;;;6.12;100.00;99519.09;6246905;22;20201;-79
2022/11/28 09:23:55;;;;;;;11.53;8.40;;;;;;;6.15;100.00;99522.22;6247049;22;20280;-79
2022/11/28 09:26:23;;;;;;;9.80;7.87;;;;;;;6.28;100.00;99507.34;6219808;22;20192;-80
2022/11/28 09:28:50;;;;;;;7.97;7.10;;;;;;;6.41;100.00;99507.44;6223389;22;20584;-80
2022/11/28 09:31:17;;;;;;;7.93;6.87;;;;;;;6.46;100.00;99505.84;6247202;22;20200;-80
2022/11/28 09:33:45;;;;;;;7.57;6.50;;;;;;;6.54;100.00;99505.66;6246920;23;20213;-79
2022/11/28 09:36:19;;;;;;;8.47;6.60;;;;;;;6.70;100.00;99506.38;6222103;22;20216;-79
2022/11/28 09:38:46;;;;;;;7.13;6.30;;;;;;;6.85;100.00;99499.88;6223034;23;20316;-80
2022/11/28 09:41:28;;;;;;;6.90;6.20;;;;;;;6.90;100.00;99494.78;6221720;23;20612;-80
2022/11/28 09:43:59;;;;;;;7.30;5.67;;;;;;;7.06;100.00;99483.75;6249811;22;20204;-81
2022/11/28 09:46:32;;;;;;;7.40;5.63;;;;;;;7.21;100.00;99488.13;6262411;22;20240;-80
2022/11/28 09:49:02;;;;;;;7.87;6.40;;;;;;;7.33;100.00;99484.66;6223470;23;20280;-80
2022/11/28 09:51:40;;;;;;;8.00;6.43;;;;;;;7.43;100.00;99493.06;6235357;23;20252;-81
2022/11/28 09:54:16;;;;;;;11.57;7.40;;;;;;;7.40;100.00;99485.50;6232095;23;20233;-81
2022/11/28 09:56:46;;;;;;;9.07;7.23;;;;;;;7.38;100.00;99471.53;6258764;23;20200;-80
2022/11/28 09:59:25;;;;;;;8.47;6.07;;;;;;;7.31;100.00;99473.38;6232513;23;20695;-80
2022/11/28 10:02:11;;;;;;;6.27;5.37;;;;;;;7.27;100.00;99466.00;6236970;23;20255;-82
2022/11/28 10:04:43;;;;;;;7.43;5.97;;;;;;;7.18;100.00;99480.53;6266224;23;20227;-81
2022/11/28 10:07:28;;;;;;;6.50;5.70;;;;;;;7.17;100.00;99461.06;6266367;23;20216;-81
2022/11/28 10:10:13;;;;;;;7.13;6.20;;;;;;;7.24;100.00;99472.53;6233490;23;20216;-80
2022/11/28 10:12:57;;;;;;;6.70;5.83;;;;;;;7.18;100.00;99470.69;6227454;23;20201;-82
2022/11/28 10:15:39;;;;;;;8.60;6.57;;;;;;;7.24;100.00;99472.53;6252021;23;20227;-82
2022/11/28 10:18:31;;;;;;;7.13;5.93;;;;;;;7.07;100.00;99460.63;6249768;23;20213;-83
2022/11/28 10:21:01;;;;;;;7.57;6.10;;;;;;;7.00;100.00;99462.41;6250416;23;20594;-81
2022/11/28 10:23:39;;;;;;;7.97;6.53;;;;;;;6.90;100.00;99454.84;6224230;23;20276;-80
2022/11/28 10:26:07;;;;;;;7.07;5.97;;;;;;;6.90;100.00;99451.34;6249382;23;20580;-79
2022/11/28 10:28:35;;;;;;;8.63;6.50;;;;;;;6.90;100.00;99460.16;6250180;23;20204;-80
2022/11/28 10:31:12;;;;;;;8.83;6.27;;;;;;;6.82;100.00;99452.34;6251195;23;20196;-81
2022/11/28 10:33:43;;;;;;;7.33;5.93;;;;;;;6.82;100.00;99448.84;6225308;23;20211;-80
2022/11/28 10:36:23;;;;;;;8.03;6.57;;;;;;;6.93;100.00;99448.28;6225713;23;20212;-80
2022/11/28 10:38:50;;;;;;;9.67;6.43;;;;;;;7.03;100.00;99440.72;6201314;23;20209;-80
2022/11/28 10:41:27;;;;;;;10.07;6.53;;;;;;;7.11;100.00;99443.19;6225944;23;20205;-81
2022/11/28 10:44:13;;;;;;;8.97;7.53;;;;;;;7.23;100.00;99435.44;6225123;23;20218;-80
2022/11/28 10:47:14;;;;;;;13.50;10.03;;;;;;;7.12;100.00;99431.53;6250564;22;20228;-81
2022/11/28 10:49:55;;;;;;;9.77;8.03;;;;;;;7.19;100.00;99431.53;6251152;23;20215;-80
2022/11/28 10:52:34;;;;;;;10.13;7.30;;;;;;;7.27;100.00;99434.84;6250442;23;20204;-80
2022/11/28 10:55:17;;;;;;;8.70;6.43;;;;;;;7.17;100.00;99426.41;6223908;23;20657;-82
2022/11/28 10:58:05;;;;;;;7.90;5.73;;;;;;;7.26;100.00;99419.88;6251519;23;20208;-81
2022/11/28 11:00:33;;;;;;;8.37;6.40;;;;;;;7.19;100.00;99412.88;6250986;23;20207;-80
2022/11/28 11:03:12;;;;;;;8.90;6.63;;;;;;;7.33;100.00;99417.19;6246439;23;20249;-83
2022/11/28 11:05:44;;;;;;;10.57;7.77;;;;;;;7.37;100.00;99407.78;6211064;23;20231;-81
2022/11/28 11:08:25;;;;;;;8.73;6.70;;;;;;;7.47;100.00;99414.34;6227842;22;20216;-81
2022/11/28 11:11:05;;;;;;;10.93;6.97;;;;;;;7.51;100.00;99420.91;6260457;23;20264;-81
2022/11/28 11:13:34;;;;;;;9.87;6.40;;;;;;;7.57;100.00;99402.44;6232428;23;20254;-81
2022/11/28 11:16:05;;;;;;;8.80;7.30;;;;;;;7.65;100.00;99399.59;6204945;23;20209;-80
2022/11/28 11:18:37;;;;;;;9.47;6.70;;;;;;;7.67;100.00;99398.34;6199578;23;20646;-80
2022/11/28 11:21:18;;;;;;;7.93;6.60;;;;;;;7.69;100.00;99398.97;6221935;23;20653;-80
2022/11/28 11:23:45;;;;;;;8.87;6.60;;;;;;;7.75;100.00;99398.13;6247862;23;20205;-79
2022/11/28 11:26:27;;;;;;;8.50;6.17;;;;;;;7.73;100.00;99386.88;6195569;23;20209;-81
2022/11/28 11:28:54;;;;;;;7.80;6.10;;;;;;;7.77;100.00;99400.59;6221320;23;20661;-79
2022/11/28 11:31:22;;;;;;;8.17;6.37;;;;;;;7.50;100.00;99395.28;6246162;23;20215;-79
2022/11/28 11:33:52;;;;;;;8.53;6.77;;;;;;;7.35;100.00;99405.31;6244759;23;20216;-80
2022/11/28 11:36:22;;;;;;;9.40;7.43;;;;;;;7.56;100.00;99422.16;6221897;23;20201;-80
2022/11/28 11:38:50;;;;;;;8.23;6.70;;;;;;;7.55;100.00;99408.00;6249091;23;20204;-81
2022/11/28 11:41:28;;;;;;;8.67;6.93;;;;;;;7.51;100.00;99402.22;6222416;23;20204;-82
2022/11/28 11:43:56;;;;;;;8.03;6.67;;;;;;;7.59;100.00;99397.75;6221943;23;20821;-79
2022/11/28 11:46:22;;;;;;;9.33;7.20;;;;;;;7.58;100.00;99396.91;6247769;22;20211;-79
2022/11/28 11:48:51;;;;;;;9.07;7.60;;;;;;;7.66;100.00;99395.88;6221178;23;20279;-80
2022/11/28 11:51:23;;;;;;;10.83;7.77;;;;;;;7.74;100.00;99385.84;6220016;23;20207;-79
2022/11/28 11:53:59;;;;;;;11.50;7.50;;;;;;;7.80;100.00;99385.00;6247700;23;20208;-79
2022/11/28 11:56:29;;;;;;;8.60;7.30;;;;;;;7.88;100.00;99383.97;6247166;23;20208;-79
2022/11/28 11:58:57;;;;;;;10.07;8.03;;;;;;;7.84;100.00;99380.88;6221432;23;20211;-79
2022/11/28 12:01:25;;;;;;;10.73;7.67;;;;;;;7.87;100.00;99387.66;6221314;23;20212;-79
2022/11/28 12:03:55;;;;;;;11.37;9.20;;;;;;;7.82;100.00;99387.47;6196283;23;20205;-79
2022/11/28 12:06:27;;;;;;;10.63;8.23;;;;;;;7.79;100.00;99380.69;6219938;23;20213;-79
2022/11/28 12:09:07;;;;;;;9.93;7.80;;;;;;;7.63;100.00;99382.97;6220690;23;20232;-80
2022/11/28 12:11:43;;;;;;;13.20;11.20;;;;;;;7.64;100.00;99395.28;6220987;23;20719;-80
2022/11/28 12:14:23;;;;;;;9.67;7.33;;;;;;;7.52;100.00;99398.56;6246490;23;20285;-80
2022/11/28 12:17:08;;;;;;;10.37;7.57;;;;;;;7.51;100.00;99388.91;6220742;23;20204;-79
2022/11/28 12:20:22;;;;;;;9.50;7.13;;;;;;;7.31;100.00;99381.94;6246263;23;20213;-79
2022/11/28 12:23:02;;;;;;;9.47;7.87;;;;;;;7.50;100.00;99383.81;6220083;23;20649;-79
2022/11/28 12:25:59;;;;;;;13.03;9.40;;;;;;;7.54;100.00;99385.03;6247168;23;20209;-79
2022/11/28 12:29:10;;;;;;;12.87;9.53;;;;;;;7.50;100.00;99381.13;6246580;23;20192;-79
2022/11/28 12:31:46;;;;;;;14.27;10.80;;;;;;;7.47;100.00;99393.00;6115658;23;20264;-79
2022/11/28 12:34:25;;;;;;;13.37;10.40;;;;;;;7.53;100.00;99386.88;6247133;23;20204;-80
2022/11/28 12:37:01;;;;;;;16.50;12.20;;;;;;;7.44;100.00;99388.09;6221692;23;20263;-80
2022/11/28 12:39:42;;;;;;;17.67;12.00;;;;;;;7.19;100.00;99388.91;6247954;23;20204;-79
2022/11/28 12:42:15;;;;;;;15.80;11.67;;;;;;;7.14;100.00;99386.84;6246863;23;20550;-82
2022/11/28 12:45:03;;;;;;;18.23;13.43;;;;;;;7.21;100.00;99386.84;6247479;23;20201;-81
2022/11/28 12:47:48;;;;;;;18.93;13.20;;;;;;;7.08;100.00;99388.50;6244876;23;20212;-82
2022/11/28 12:50:34;;;;;;;16.47;12.77;;;;;;;7.06;100.00;99379.88;6245557;23;20600;-82
2022/11/28 12:53:33;;;;;;;19.03;12.93;;;;;;;6.79;100.00;99386.19;6220705;23;20266;-81
2022/11/28 12:56:48;;;;;;;17.73;12.40;;;;;;;6.94;100.00;99384.16;6192527;23;20209;-81
2022/11/28 12:59:52;;;;;;;18.17;12.17;;;;;;;6.88;100.00;99382.31;6206570;23;20208;-80
2022/11/28 13:02:43;;;;;;;17.97;12.17;;;;;;;6.86;100.00;99387.00;6246660;23;20680;-79
2022/11/28 13:05:24;;;;;;;17.60;12.10;;;;;;;6.82;100.00;99377.78;6247434;23;20204;-79
2022/11/28 13:08:26;;;;;;;18.33;12.33;;;;;;;6.77;100.00;99390.88;6220818;23;20284;-79
2022/11/28 13:11:36;;;;;;;16.37;13.53;;;;;;;6.77;100.00;99382.88;6215091;23;20204;-80
2022/11/28 13:14:03;;;;;;;17.10;13.50;;;;;;;6.86;100.00;99384.34;6246135;23;20287;-79
2022/11/28 13:16:44;;;;;;;14.70;11.43;;;;;;;6.71;100.00;99390.88;6246819;23;20201;-79
2022/11/28 13:19:21;;;;;;;17.77;12.53;;;;;;;6.75;100.00;99390.25;6246594;23;20208;-78
2022/11/28 13:22:03;;;;;;;18.50;13.33;;;;;;;6.81;100.00;99396.63;6247433;23;20680;-79
2022/11/28 13:24:39;;;;;;;19.70;13.10;;;;;;;6.61;100.00;99388.59;6246091;23;20205;-80
2022/11/28 13:27:23;;;;;;;20.83;14.10;;;;;;;6.58;100.00;99392.44;6245537;23;20244;-80
2022/11/28 13:29:57;;;;;;;21.40;13.40;;;;;;;6.55;100.00;99397.34;6246704;23;20274;-79
2022/11/28 13:32:42;;;;;;;20.07;13.77;;;;;;;6.57;100.00;99404.13;6246241;23;20228;-80
2022/11/28 13:35:12;;;;;;;21.63;16.00;;;;;;;6.44;100.00;99396.06;6246442;23;20205;-80
2022/11/28 13:37:47;;;;;;;22.33;15.67;;;;;;;6.43;100.00;99389.13;6247157;23;20208;-80
2022/11/28 13:40:39;;;;;;;23.20;16.43;;;;;;;6.33;100.00;99399.31;6236227;23;20572;-80
2022/11/28 13:43:09;;;;;;;23.83;17.43;;;;;;;6.19;100.00;99403.75;6216314;23;20221;-79
2022/11/28 13:45:45;;;;;;;25.30;19.63;;;;;;;6.20;100.00;99408.03;6222210;23;20205;-79
2022/11/28 13:48:33;;;;;;;24.10;16.77;;;;;;;6.19;100.00;99410.91;6218667;23;20213;-80
2022/11/28 13:51:21;;;;;;;20.40;15.17;;;;;;;5.99;100.00;99405.47;6216187;23;20205;-80
2022/11/28 13:54:19;;;;;;;21.83;15.03;;;;;;;5.93;100.00;99408.91;6215865;23;20209;-80
2022/11/28 13:57:07;;;;;;;22.83;15.50;;;;;;;5.86;100.00;99407.19;6215893;23;20216;-80
2022/11/28 13:59:34;;;;;;;21.57;13.43;;;;;;;5.85;100.00;99406.38;6201305;23;20194;-80
2022/11/28 14:02:04;;;;;;;21.40;14.43;;;;;;;5.74;100.00;99405.06;6215800;23;20280;-80
2022/11/28 14:04:31;;;;;;;20.33;13.90;;;;;;;5.79;100.00;99409.81;6214871;23;20247;-80
2022/11/28 14:07:02;;;;;;;23.13;14.83;;;;;;;5.67;100.00;99414.84;6189817;23;20260;-80
2022/11/28 14:10:14;;;;;;;21.77;14.07;;;;;;;5.68;100.00;99428.97;6214838;23;20206;-81
2022/11/28 14:12:54;;;;;;;22.70;14.80;;;;;;;5.63;100.00;99434.84;6184764;23;20197;-80
2022/11/28 14:15:38;;;;;;;20.30;14.70;;;;;;;5.57;100.00;99432.13;6215674;23;20244;-80
2022/11/28 14:18:08;;;;;;;23.43;14.33;;;;;;;5.58;100.00;99431.13;6213908;23;20213;-80
2022/11/28 14:21:03;;;;;;;21.67;14.23;;;;;;;5.35;100.00;99426.03;6215992;23;20225;-79
2022/11/28 14:23:45;;;;;;;19.97;13.77;;;;;;;5.32;100.00;99434.38;6215744;23;20213;-79
2022/11/28 14:26:22;;;;;;;20.17;13.60;;;;;;;5.16;100.00;99431.97;6214782;23;20213;-80
2022/11/28 14:28:50;;;;;;;23.03;14.67;;;;;;;5.20;100.00;99427.94;6190243;23;20200;-79
2022/11/28 14:31:31;;;;;;;22.53;14.50;;;;;;;5.11;100.00;99437.03;6215566;23;20251;-79
2022/11/28 14:34:01;;;;;;;22.13;14.47;;;;;;;4.93;100.00;99429.50;6215738;23;20665;-79
2022/11/28 14:36:34;;;;;;;22.27;13.83;;;;;;;4.80;100.00;99437.31;6187987;23;20219;-79
2022/11/28 14:39:15;;;;;;;21.40;14.40;;;;;;;4.85;100.00;99433.06;6187064;23;20680;-79
2022/11/28 14:42:01;;;;;;;29.53;19.27;;;;;;;4.74;100.00;99428.28;6214709;23;20522;-79
2022/11/28 14:44:46;;;;;;;22.40;14.10;;;;;;;4.60;100.00;99423.81;6215986;23;20205;-79
2022/11/28 14:47:20;;;;;;;22.13;14.77;;;;;;;4.58;100.00;99430.31;6216118;23;20208;-79
2022/11/28 14:49:47;;;;;;;23.70;15.43;;;;;;;4.52;100.00;99428.41;6246513;22;20209;-79
2022/11/28 14:52:19;;;;;;;23.47;14.77;;;;;;;4.41;100.00;99438.50;6245719;22;20209;-79
2022/11/28 14:55:09;;;;;;;22.70;15.17;;;;;;;4.31;100.00;99445.91;6223891;23;20608;-79
2022/11/28 14:57:52;;;;;;;22.97;16.17;;;;;;;4.30;100.00;99454.84;6246165;22;20212;-78
2022/11/28 15:00:23;;;;;;;23.20;14.20;;;;;;;4.29;100.00;99455.06;6245678;22;20674;-78
2022/11/28 15:03:12;;;;;;;22.70;14.53;;;;;;;4.23;100.00;99455.78;6246301;22;20201;-79
2022/11/28 15:05:53;;;;;;;23.00;14.97;;;;;;;4.11;100.00;99449.28;6250226;22;20201;-81
2022/11/28 15:09:00;;;;;;;23.07;15.37;;;;;;;4.11;100.00;99458.06;6230610;22;20682;-81
2022/11/28 15:11:32;;;;;;;25.70;16.10;;;;;;;4.04;100.00;99451.03;6251257;22;20271;-80
2022/11/28 15:14:08;;;;;;;27.73;17.93;;;;;;;4.03;100.00;99444.06;6223668;23;20266;-80
2022/11/28 15:16:40;;;;;;;27.33;18.30;;;;;;;4.04;100.00;99445.72;6201870;23;20204;-80
2022/11/28 15:19:33;;;;;;;33.63;22.93;;;;;;;3.97;100.00;99443.78;6249562;23;20231;-80
2022/11/28 15:22:00;;;;;;;30.27;18.77;;;;;;;3.98;100.00;99441.97;6248886;23;20215;-79
2022/11/28 15:24:30;;;;;;;31.80;20.10;;;;;;;3.94;100.00;99443.31;6227190;23;20196;-80
2022/11/28 15:27:17;;;;;;;32.10;19.27;;;;;;;3.94;100.00;99454.75;6251103;22;20209;-81
2022/11/28 15:29:52;;;;;;;30.13;16.87;;;;;;;3.90;100.00;99453.47;6253154;23;20208;-80
2022/11/28 15:32:19;;;;;;;40.03;23.83;;;;;;;3.79;100.00;99459.22;6227139;22;20210;-81
2022/11/28 15:35:00;;;;;;;33.00;22.60;;;;;;;3.71;100.00;99448.69;6252507;23;20547;-81
2022/11/28 15:37:30;;;;;;;24.67;16.10;;;;;;;3.80;100.00;99458.22;6252673;23;20238;-80
2022/11/28 15:39:58;;;;;;;27.73;17.93;;;;;;;3.82;100.00;99458.03;6225673;23;20221;-80
2022/11/28 15:42:30;;;;;;;28.67;18.43;;;;;;;3.70;100.00;99462.94;6249314;22;20201;-80
2022/11/28 15:45:07;;;;;;;24.77;16.83;;;;;;;3.71;100.00;99477.00;6224641;23;20208;-80
2022/11/28 15:47:34;;;;;;;27.03;16.40;;;;;;;3.61;100.00;99463.19;6249359;23;20213;-80
2022/11/28 15:50:15;;;;;;;25.63;16.17;;;;;;;3.62;100.00;99472.78;6224096;22;20280;-79
2022/11/28 15:53:02;;;;;;;26.40;16.87;;;;;;;3.57;100.00;99464.56;6248519;23;20213;-81
2022/11/28 15:55:31;;;;;;;29.30;18.80;;;;;;;3.64;100.00;99470.81;6252056;23;20199;-80
2022/11/28 15:58:19;;;;;;;26.43;16.70;;;;;;;3.54;100.00;99469.22;6250703;23;20212;-80
2022/11/28 16:00:54;;;;;;;27.13;17.70;;;;;;;3.53;100.00;99477.34;6251607;23;20276;-80
2022/11/28 16:03:24;;;;;;;26.73;17.77;;;;;;;3.44;100.00;99465.16;6229170;23;20204;-80
2022/11/28 16:05:52;;;;;;;29.07;18.13;;;;;;;3.36;100.00;99486.41;6278058;22;20538;-81
2022/11/28 16:08:35;;;;;;;28.47;17.93;;;;;;;3.35;100.00;99466.22;6230991;22;20218;-78
2022/11/28 16:11:04;;;;;;;29.33;18.27;;;;;;;3.27;100.00;99455.69;6253482;22;20215;-77
2022/11/28 16:13:32;;;;;;;28.93;18.37;;;;;;;3.29;100.00;99481.00;6254808;23;20201;-82
2022/11/28 16:16:02;;;;;;;30.93;19.97;;;;;;;3.25;100.00;99478.88;6251310;22;20231;-80
2022/11/28 16:18:30;;;;;;;29.63;18.57;;;;;;;3.21;100.00;99477.59;6249149;23;20201;-81
2022/11/28 16:20:59;;;;;;;31.73;20.00;;;;;;;3.13;100.00;99472.34;6250144;22;20203;-81
2022/11/28 16:23:32;;;;;;;31.67;19.93;;;;;;;3.24;100.00;99477.22;6249049;23;20208;-80
2022/11/28 16:26:00;;;;;;;32.37;19.90;;;;;;;3.21;100.00;99473.13;6247928;23;20224;-80
2022/11/28 16:28:30;;;;;;;38.83;23.83;;;;;;;3.20;100.00;99476.75;6247631;22;20200;-80
2022/11/28 16:30:56;;;;;;;33.47;21.73;;;;;;;3.17;100.00;99465.69;6245502;23;20212;-80
2022/11/28 16:33:41;;;;;;;32.07;20.80;;;;;;;3.15;100.00;99470.34;6249659;22;20205;-80
2022/11/28 16:36:15;;;;;;;36.37;22.47;;;;;;;3.07;100.00;99468.56;6246657;22;20642;-81
2022/11/28 16:38:43;;;;;;;30.27;19.90;;;;;;;3.15;100.00;99473.81;6247034;23;20200;-80
2022/11/28 16:41:19;;;;;;;33.07;20.80;;;;;;;3.10;100.00;99474.34;6248255;23;20203;-80
2022/11/28 16:43:48;;;;;;;31.10;20.80;;;;;;;3.07;100.00;99479.16;6250159;22;20207;-80
2022/11/28 16:46:23;;;;;;;38.67;26.63;;;;;;;3.15;100.00;99480.94;6249165;22;20205;-81
2022/11/28 16:48:57;;;;;;;33.07;21.93;;;;;;;3.17;100.00;99479.75;6249948;22;20200;-81
2022/11/28 16:51:24;;;;;;;30.47;20.37;;;;;;;3.19;100.00;99482.22;6247856;23;20212;-80
2022/11/28 16:53:54;;;;;;;32.13;20.67;;;;;;;3.25;100.00;99476.22;6248989;22;20212;-81
2022/11/28 16:56:29;;;;;;;36.50;22.73;;;;;;;3.24;100.00;99488.63;6247082;22;20266;-80
2022/11/28 16:59:10;;;;;;;31.57;20.87;;;;;;;3.21;100.00;99478.41;6249176;22;20208;-80
2022/11/28 17:01:37;;;;;;;29.10;19.00;;;;;;;3.29;100.00;99488.94;6249282;22;20283;-81
2022/11/28 17:04:04;;;;;;;29.10;20.23;;;;;;;3.30;100.00;99489.75;6247242;22;20250;-81
2022/11/28 17:06:33;;;;;;;32.73;19.97;;;;;;;3.39;100.00;99499.31;6249659;22;20228;-81
2022/11/28 17:09:00;;;;;;;33.30;19.37;;;;;;;3.38;100.00;99500.28;6247147;23;20200;-80
2022/11/28 17:11:29;;;;;;;33.37;21.17;;;;;;;3.29;100.00;99499.53;6247411;22;20255;-81
2022/11/28 17:13:55;;;;;;;32.03;21.00;;;;;;;3.30;100.00;99501.19;6247583;23;20213;-80
2022/11/28 17:16:27;;;;;;;31.40;19.27;;;;;;;3.37;100.00;99498.63;6254237;22;20208;-82
2022/11/28 17:25:00;;;;;;;28.70;19.10;;;;;;;3.32;100.00;99499.16;6156372;23;20217;-80
2022/11/28 17:27:27;;;;;;;29.77;20.00;;;;;;;3.38;100.00;99508.25;6179485;23;20280;-79
2022/11/28 17:29:54;;;;;;;35.30;22.20;;;;;;;3.35;100.00;99498.84;6187795;23;20232;-80
2022/11/28 17:49:56;;;;;;;28.77;19.60;;;;;;;3.30;100.00;99497.72;6222103;23;20204;-80
2022/11/28 17:52:28;;;;;;;27.07;17.97;;;;;;;3.35;100.00;99495.34;6227347;22;20191;-81
2022/11/28 17:55:02;;;;;;;29.80;19.87;;;;;;;3.41;100.00;99497.28;6261567;22;20204;-81
2022/11/28 17:57:34;;;;;;;28.70;21.87;;;;;;;3.42;100.00;99505.06;6259619;22;20663;-80
2022/11/28 18:00:03;;;;;;;35.13;25.67;;;;;;;3.35;100.00;99505.94;6255439;22;20683;-80
2022/11/28 18:02:39;;;;;;;37.83;27.03;;;;;;;3.35;100.00;99509.44;6254348;22;20270;-80
2022/11/28 18:05:07;;;;;;;30.53;20.00;;;;;;;3.45;100.00;99510.00;6288883;22;20216;-81
2022/11/28 18:07:38;;;;;;;28.37;18.50;;;;;;;3.38;100.00;99502.94;6241536;22;20200;-82
2022/11/28 18:52:57;;;;;;;26.73;18.17;;;;;;;3.45;100.00;99501.25;6294257;22;20206;-79
2022/11/28 18:55:24;;;;;;;28.90;18.43;;;;;;;3.45;100.00;99510.00;6256538;22;20253;-78
2022/11/28 18:57:51;;;;;;;26.70;18.13;;;;;;;3.42;100.00;99506.88;6309990;22;20203;-79
2022/11/28 19:00:18;;;;;;;27.13;18.37;;;;;;;3.41;100.00;99500.75;6309409;22;20203;-79
2022/11/28 19:02:47;;;;;;;26.73;18.97;;;;;;;3.41;100.00;99494.63;6283356;22;20659;-79
2022/11/28 19:05:13;;;;;;;25.20;17.73;;;;;;;3.48;100.00;99493.75;6309975;22;20221;-79
2022/11/28 19:07:40;;;;;;;31.43;20.10;;;;;;;3.42;100.00;99502.41;6282829;22;20211;-78
2022/11/28 19:10:07;;;;;;;28.07;19.20;;;;;;;3.41;100.00;99507.88;6282230;22;20694;-81
2022/11/28 19:12:35;;;;;;;26.33;18.40;;;;;;;3.31;100.00;99494.88;6283349;22;20219;-78
2022/11/28 19:15:02;;;;;;;29.33;19.30;;;;;;;3.42;100.00;99507.72;6282814;22;20207;-79
2022/11/28 19:17:29;;;;;;;27.57;19.47;;;;;;;3.47;100.00;99508.00;6282736;22;20203;-79
2022/11/28 19:19:56;;;;;;;36.07;23.87;;;;;;;3.44;100.00;99507.53;6309618;22;20206;-79
2022/11/28 19:22:23;;;;;;;30.33;23.47;;;;;;;3.37;100.00;99511.88;6307845;22;20195;-79
2022/11/28 19:24:49;;;;;;;37.97;28.37;;;;;;;3.33;100.00;99507.94;6282658;22;20199;-79
2022/11/28 19:27:16;;;;;;;38.10;27.60;;;;;;;3.24;100.00;99507.16;6309756;22;20584;-79
2022/11/28 19:29:42;;;;;;;33.13;23.17;;;;;;;3.30;100.00;99506.47;6283084;22;20287;-79
2022/11/28 19:32:11;;;;;;;29.73;21.83;;;;;;;3.47;100.00;99515.94;6309458;22;20207;-79
2022/11/28 19:34:38;;;;;;;24.77;18.40;;;;;;;3.39;100.00;99505.41;6282678;22;20664;-79
2022/11/28 19:37:04;;;;;;;25.10;17.87;;;;;;;3.30;100.00;99513.59;6283854;22;20195;-79
2022/11/28 19:39:31;;;;;;;23.77;17.30;;;;;;;3.35;100.00;99508.59;6258588;22;20259;-79
2022/11/28 19:41:58;;;;;;;24.93;18.13;;;;;;;3.30;100.00;99503.84;6284010;22;20218;-79
2022/11/28 19:44:27;;;;;;;24.67;18.03;;;;;;;3.35;100.00;99503.31;6309861;22;20199;-80
2022/11/28 19:46:55;;;;;;;27.27;18.63;;;;;;;3.35;100.00;99498.00;6310126;22;20257;-79
2022/11/28 19:49:22;;;;;;;29.03;19.47;;;;;;;3.29;100.00;99502.19;6310001;22;20211;-79
2022/11/28 19:51:49;;;;;;;27.30;19.17;;;;;;;3.32;100.00;99506.28;6310295;22;20206;-79
2022/11/28 19:54:18;;;;;;;27.40;19.53;;;;;;;3.25;100.00;99502.72;6282000;22;20221;-79
2022/11/28 19:56:46;;;;;;;29.80;19.63;;;;;;;3.36;100.00;99497.81;6308658;22;20201;-79
2022/11/28 19:59:13;;;;;;;28.37;20.17;;;;;;;3.22;100.00;99503.06;6310426;22;20283;-80
2022/11/28 20:01:40;;;;;;;27.93;20.77;;;;;;;3.30;100.00;99508.31;6310895;22;20207;-79
2022/11/28 20:04:07;;;;;;;26.03;18.23;;;;;;;3.38;100.00;99503.75;6281815;22;20184;-79
2022/11/28 20:06:34;;;;;;;28.00;18.70;;;;;;;3.36;100.00;99505.75;6309054;22;20207;-79
2022/11/28 20:09:05;;;;;;;30.43;20.37;;;;;;;3.28;100.00;99508.47;6310454;22;20206;-79
2022/11/28 20:11:33;;;;;;;28.77;20.03;;;;;;;3.27;100.00;99500.69;6282617;22;20207;-79
2022/11/28 20:14:05;;;;;;;28.73;20.40;;;;;;;3.18;100.00;99510.50;6281783;22;20231;-80
2022/11/28 20:16:34;;;;;;;28.60;19.33;;;;;;;3.17;100.00;99511.53;6281617;22;20203;-79
2022/11/28 20:19:03;;;;;;;30.40;20.50;;;;;;;3.17;100.00;99510.72;6256641;22;20233;-79
2022/11/28 20:21:30;;;;;;;31.03;21.20;;;;;;;3.27;100.00;99511.28;6307843;22;20207;-79
2022/11/28 20:24:03;;;;;;;28.50;19.20;;;;;;;3.25;100.00;99511.47;6282577;22;20258;-79
2022/11/28 20:26:38;;;;;;;28.97;19.20;;;;;;;3.21;100.00;99510.19;6281640;22;20199;-79
2022/11/28 20:29:06;;;;;;;30.07;20.23;;;;;;;3.21;100.00;99518.13;6281369;22;20203;-79
2022/11/28 20:31:40;;;;;;;30.70;19.90;;;;;;;3.19;100.00;99509.53;6281951;22;20733;-79
2022/11/28 20:34:07;;;;;;;28.97;19.47;;;;;;;3.12;100.00;99510.41;6282558;22;20206;-79
2022/11/28 20:36:35;;;;;;;31.07;21.03;;;;;;;3.10;100.00;99507.91;6282025;22;20207;-80
2022/11/28 20:39:03;;;;;;;30.63;20.23;;;;;;;3.18;100.00;99521.09;6309990;22;20209;-80
2022/11/28 20:41:30;;;;;;;39.43;26.13;;;;;;;3.07;100.00;99522.34;6283074;22;20213;-79
2022/11/28 20:43:59;;;;;;;35.17;20.63;;;;;;;3.10;100.00;99523.81;6309515;22;20236;-80
2022/11/28 20:46:29;;;;;;;33.17;21.30;;;;;;;3.06;100.00;99522.50;6282447;22;20191;-79
2022/11/28 20:48:57;;;;;;;30.97;20.87;;;;;;;3.04;100.00;99519.19;6308880;22;20256;-79
2022/11/28 20:51:26;;;;;;;32.93;21.07;;;;;;;3.08;100.00;99523.13;6308532;22;20218;-79
2022/11/28 20:53:56;;;;;;;31.60;21.13;;;;;;;3.08;100.00;99531.09;6281997;22;20207;-79
2022/11/28 20:56:26;;;;;;;35.43;21.17;;;;;;;3.10;100.00;99521.16;6281250;22;20207;-79
2022/11/28 20:58:53;;;;;;;30.57;20.47;;;;;;;3.10;100.00;99534.41;6309314;22;20203;-79
2022/11/28 21:01:22;;;;;;;33.53;21.03;;;;;;;3.12;100.00;99524.47;6309205;22;20699;-80
2022/11/28 21:03:49;;;;;;;31.63;19.90;;;;;;;3.14;100.00;99530.41;6281744;22;20261;-80
2022/11/28 21:06:16;;;;;;;30.23;20.03;;;;;;;3.09;100.00;99530.09;6280662;22;20286;-79
2022/11/28 21:08:43;;;;;;;31.07;20.03;;;;;;;3.07;100.00;99530.28;6281204;22;20211;-79
2022/11/28 21:11:12;;;;;;;31.10;20.40;;;;;;;3.00;100.00;99537.25;6308867;22;20184;-79
2022/11/28 21:13:59;;;;;;;32.80;20.53;;;;;;;3.07;100.00;99540.03;6308143;22;20241;-79
2022/11/28 21:16:28;;;;;;;31.50;20.63;;;;;;;3.07;100.00;99537.41;6281086;22;20199;-79
2022/11/28 21:18:56;;;;;;;33.90;19.90;;;;;;;3.11;100.00;99541.34;6281225;22;20214;-79
2022/11/28 21:21:28;;;;;;;31.07;20.20;;;;;;;3.00;100.00;99544.38;6280257;22;20644;-79
2022/11/28 21:23:56;;;;;;;31.13;19.83;;;;;;;3.05;100.00;99549.97;6308466;22;20215;-79
2022/11/28 21:26:24;;;;;;;30.53;19.60;;;;;;;3.16;100.00;99536.34;6279986;22;20206;-79
2022/11/28 21:28:58;;;;;;;28.67;18.83;;;;;;;3.09;100.00;99544.16;6282724;22;20190;-79
2022/11/28 21:31:29;;;;;;;31.43;19.00;;;;;;;3.07;100.00;99537.41;6281002;22;20207;-79
2022/11/28 21:33:57;;;;;;;30.60;18.77;;;;;;;2.98;100.00;99535.78;6281193;22;20208;-79
2022/11/28 21:36:25;;;;;;;28.80;19.27;;;;;;;3.01;100.00;99530.16;6307913;22;20199;-80
2022/11/28 21:38:54;;;;;;;30.53;18.47;;;;;;;3.00;100.00;99536.44;6282663;22;20660;-79
2022/11/28 21:41:22;;;;;;;30.63;19.50;;;;;;;2.91;100.00;99533.00;6310388;22;20207;-79
2022/11/28 21:43:49;;;;;;;32.10;19.67;;;;;;;2.91;100.00;99532.19;6284109;22;20253;-79
2022/11/28 21:46:16;;;;;;;32.37;19.27;;;;;;;2.89;100.00;99534.19;6310560;22;20253;-78